createdAt,value
2023-05-23T00:01:45.613Z,81.93
2023-05-23T00:04:48.329Z,80.13
2023-05-23T00:07:50.199Z,79.68
2023-05-23T00:10:53.453Z,80.70
2023-05-23T00:13:57.603Z,79.63
2023-05-23T00:17:00.535Z,79.03
2023-05-23T00:20:03.027Z,79.67
2023-05-23T00:23:08.122Z,78.63
2023-05-23T00:26:11.503Z,79.05
2023-05-23T00:29:16.917Z,78.29
2023-05-23T00:32:19.920Z,78.34
2023-05-23T00:35:21.950Z,78.26
2023-05-23T00:38:23.734Z,78.07
2023-05-23T00:41:28.604Z,78.37
2023-05-23T00:44:30.781Z,78.12
2023-05-23T00:47:32.937Z,79.56
2023-05-23T00:50:36.239Z,79.77
2023-05-23T00:53:38.913Z,78.66
2023-05-23T00:56:44.001Z,78.97
2023-05-23T00:59:48.085Z,79.26
2023-05-23T01:02:53.649Z,79.71
2023-05-23T01:05:56.068Z,79.97
2023-05-23T01:09:01.958Z,80.11
2023-05-23T01:12:17.314Z,80.73
2023-05-23T01:15:21.779Z,81.09
2023-05-23T01:18:30.663Z,80.62
2023-05-23T01:21:34.255Z,80.55
2023-05-23T01:24:40.932Z,80.46
2023-05-23T01:27:53.207Z,80.95
2023-05-23T01:30:58.710Z,80.61
2023-05-23T01:34:03.543Z,80.78
2023-05-23T01:37:09.836Z,80.53
2023-05-23T01:40:12.744Z,81.00
2023-05-23T01:43:16.179Z,80.80
2023-05-23T01:46:22.702Z,81.03
2023-05-23T01:49:24.979Z,81.34
2023-05-23T01:52:26.944Z,80.77
2023-05-23T01:55:29.382Z,80.38
2023-05-23T01:58:32.760Z,80.15
2023-05-23T02:01:35.024Z,80.18
2023-05-23T02:04:37.680Z,80.42
2023-05-23T02:07:39.789Z,81.19
2023-05-23T02:10:41.667Z,80.64
2023-05-23T02:13:45.000Z,80.43
2023-05-23T02:16:52.798Z,79.06
2023-05-23T02:19:55.600Z,79.77
2023-05-23T02:22:57.474Z,79.46
2023-05-23T02:25:59.315Z,78.84
2023-05-23T02:29:03.092Z,78.48
2023-05-23T02:32:05.554Z,78.96
2023-05-23T02:35:08.478Z,79.96
2023-05-23T02:38:10.509Z,79.72
2023-05-23T02:41:12.733Z,79.71
2023-05-23T02:44:19.683Z,79.91
2023-05-23T02:47:21.570Z,79.98
2023-05-23T02:50:23.805Z,80.02
2023-05-23T02:53:28.119Z,79.87
2023-05-23T02:56:29.955Z,79.99
2023-05-23T02:59:34.082Z,79.89
2023-05-23T03:02:36.039Z,79.97
2023-05-23T03:05:38.891Z,80.44
2023-05-23T03:08:41.771Z,80.12
2023-05-23T03:11:43.861Z,80.50
2023-05-23T03:14:47.096Z,80.35
2023-05-23T03:17:49.073Z,79.85
2023-05-23T03:20:51.003Z,80.57
2023-05-23T03:23:53.501Z,80.84
2023-05-23T03:26:55.920Z,80.60
2023-05-23T03:29:59.237Z,80.74
2023-05-23T03:33:02.161Z,80.87
2023-05-23T03:36:04.415Z,80.58
2023-05-23T03:39:06.490Z,80.83
2023-05-23T03:42:08.539Z,80.87
2023-05-23T03:45:12.478Z,80.97
2023-05-23T03:48:14.431Z,80.75
2023-05-23T03:51:16.418Z,80.04
2023-05-23T03:54:18.455Z,80.26
2023-05-23T03:57:20.422Z,79.63
2023-05-23T04:00:23.854Z,80.10
2023-05-23T04:03:27.489Z,79.97
2023-05-23T04:06:31.413Z,79.57
2023-05-23T04:09:33.325Z,78.84
2023-05-23T04:12:35.680Z,79.25
2023-05-23T04:15:41.433Z,79.07
2023-05-23T04:18:47.576Z,78.35
2023-05-23T04:21:49.739Z,78.53
2023-05-23T04:24:51.631Z,78.23
2023-05-23T04:27:57.525Z,78.11
2023-05-23T04:31:02.863Z,78.01
2023-05-23T04:34:04.858Z,78.23
2023-05-23T04:37:07.299Z,78.12
2023-05-23T04:40:09.892Z,78.23
2023-05-23T04:43:14.436Z,77.12
2023-05-23T04:46:22.226Z,76.27
2023-05-23T04:49:24.142Z,75.57
2023-05-23T04:52:27.674Z,75.64
2023-05-23T04:55:29.811Z,75.70
2023-05-23T04:58:32.256Z,75.52
2023-05-23T05:01:35.591Z,75.27
2023-05-23T05:04:38.252Z,75.55
2023-05-23T05:07:40.532Z,74.80
2023-05-23T05:10:43.285Z,74.73
2023-05-23T05:13:45.149Z,75.25
2023-05-23T05:16:50.320Z,74.90
2023-05-23T05:19:53.124Z,74.60
2023-05-23T05:22:58.397Z,70.62
2023-05-23T05:26:01.119Z,69.34
2023-05-23T05:29:03.098Z,69.10
2023-05-23T05:32:09.172Z,70.28
2023-05-23T05:35:14.074Z,70.20
2023-05-23T05:38:16.150Z,70.89
2023-05-23T05:41:18.009Z,69.11
2023-05-23T05:44:20.064Z,68.91
2023-05-23T05:47:23.267Z,68.57
2023-05-23T05:50:26.101Z,68.20
2023-05-23T05:53:27.933Z,67.45
2023-05-23T05:56:29.922Z,64.03
2023-05-23T05:59:32.606Z,65.87
2023-05-23T06:02:36.795Z,66.39
2023-05-23T06:05:39.774Z,69.65
2023-05-23T06:08:42.817Z,69.48
2023-05-23T06:11:44.696Z,70.47
2023-05-23T06:14:46.521Z,70.65
2023-05-23T06:17:51.541Z,67.22
2023-05-23T06:20:53.442Z,66.59
2023-05-23T06:23:56.028Z,67.39
2023-05-23T06:26:57.824Z,65.71
2023-05-23T06:29:59.657Z,66.41
2023-05-23T06:33:03.475Z,66.61
2023-05-23T06:36:05.561Z,62.50
2023-05-23T06:39:10.052Z,63.56
2023-05-23T06:42:11.967Z,63.08
2023-05-23T06:45:16.372Z,61.66
2023-05-23T06:48:19.937Z,60.45
2023-05-23T06:51:21.957Z,57.45
2023-05-23T06:54:23.900Z,56.97
2023-05-23T06:57:25.898Z,59.59
2023-05-23T07:00:31.634Z,60.47
2023-05-23T07:03:38.530Z,58.98
2023-05-23T07:06:40.615Z,61.31
2023-05-23T07:09:42.990Z,61.63
2023-05-23T07:12:44.869Z,61.75
2023-05-23T07:15:46.708Z,58.91
2023-05-23T07:18:49.915Z,60.29
2023-05-23T07:21:51.819Z,58.97
2023-05-23T07:24:53.891Z,57.14
2023-05-23T07:27:56.089Z,57.64
2023-05-23T07:30:59.104Z,58.51
2023-05-23T07:34:02.769Z,56.24
2023-05-23T07:37:04.976Z,58.85
2023-05-23T07:40:09.570Z,56.21
2023-05-23T07:43:11.428Z,57.96
2023-05-23T07:46:16.805Z,56.14
2023-05-23T07:49:20.137Z,56.58
2023-05-23T07:52:22.800Z,56.82
2023-05-23T07:55:24.668Z,54.73
2023-05-23T07:58:26.658Z,55.59
2023-05-23T08:01:28.559Z,54.43
2023-05-23T08:04:34.633Z,55.50
2023-05-23T08:07:36.563Z,52.41
2023-05-23T08:10:40.217Z,52.31
2023-05-23T08:13:42.774Z,55.04
2023-05-23T08:16:44.720Z,53.52
2023-05-23T08:19:48.132Z,52.53
2023-05-23T08:22:49.950Z,55.00
2023-05-23T08:25:52.746Z,51.60
2023-05-23T08:28:54.699Z,50.86
2023-05-23T08:31:56.720Z,50.61
2023-05-23T08:35:00.106Z,51.75
2023-05-23T08:38:02.272Z,50.57
2023-05-23T08:41:12.959Z,52.45
2023-05-23T08:44:15.958Z,49.81
2023-05-23T08:47:19.951Z,49.97
2023-05-23T08:50:25.241Z,48.48
2023-05-23T08:53:29.146Z,49.71
2023-05-23T08:56:31.717Z,50.01
2023-05-23T08:59:35.355Z,49.95
2023-05-23T09:02:38.134Z,48.63
2023-05-23T09:05:42.385Z,49.08
2023-05-23T09:08:46.262Z,48.21
2023-05-23T09:11:48.700Z,49.75
2023-05-23T09:14:50.886Z,51.37
2023-05-23T09:17:53.876Z,48.01
2023-05-23T09:20:57.715Z,47.92
2023-05-23T09:24:00.973Z,45.98
2023-05-23T09:27:03.501Z,47.38
2023-05-23T09:30:06.886Z,47.96
2023-05-23T09:33:09.652Z,47.28
2023-05-23T09:36:12.974Z,47.05
2023-05-23T09:39:14.965Z,45.38
2023-05-23T09:42:22.202Z,46.67
2023-05-23T09:45:30.302Z,47.84
2023-05-23T09:48:33.545Z,47.37
2023-05-23T09:51:37.672Z,48.26
2023-05-23T09:54:39.778Z,49.42
2023-05-23T09:57:44.205Z,48.70
2023-05-23T10:00:48.821Z,47.84
2023-05-23T10:03:54.753Z,52.73
2023-05-23T10:07:05.374Z,49.73
2023-05-23T10:10:10.659Z,51.38
2023-05-23T10:13:13.568Z,50.36
2023-05-23T10:16:21.509Z,48.27
2023-05-23T10:19:28.393Z,48.54
2023-05-23T10:22:33.039Z,53.31
2023-05-23T10:25:37.249Z,50.55
2023-05-23T10:28:40.905Z,53.62
2023-05-23T10:31:44.260Z,54.64
2023-05-23T10:34:56.575Z,48.38
2023-05-23T10:38:17.714Z,46.27
2023-05-23T10:41:27.081Z,42.38
2023-05-23T10:44:31.219Z,45.21
2023-05-23T10:47:34.322Z,42.39
2023-05-23T10:50:41.731Z,42.30
2023-05-23T10:53:47.008Z,45.15
2023-05-23T10:57:03.104Z,46.34
2023-05-23T11:00:12.178Z,45.88
2023-05-23T11:03:14.281Z,44.90
2023-05-23T11:06:30.085Z,45.53
2023-05-23T11:09:33.363Z,45.06
2023-05-23T11:12:37.862Z,41.30
2023-05-23T11:15:43.674Z,47.71
2023-05-23T11:18:46.617Z,42.06
2023-05-23T11:21:50.869Z,43.51
2023-05-23T11:24:55.220Z,45.73
2023-05-23T11:27:57.225Z,44.93
2023-05-23T11:30:59.332Z,41.23
2023-05-23T11:34:01.720Z,43.68
2023-05-23T11:37:03.981Z,43.32
2023-05-23T11:40:32.850Z,51.25
2023-05-23T11:43:34.827Z,43.11
2023-05-23T11:46:37.306Z,43.89
2023-05-23T11:49:40.459Z,45.28
2023-05-23T11:52:42.628Z,41.34
2023-05-23T11:55:54.465Z,41.18
2023-05-23T11:58:57.593Z,42.13
2023-05-23T12:02:02.762Z,41.75
2023-05-23T12:05:08.334Z,40.68
2023-05-23T12:08:12.274Z,40.75
2023-05-23T12:11:15.972Z,39.31
2023-05-23T12:14:18.546Z,40.59
2023-05-23T12:17:20.599Z,39.19
2023-05-23T12:20:22.961Z,40.83
2023-05-23T12:23:25.519Z,41.55
2023-05-23T12:26:29.531Z,39.85
2023-05-23T12:29:34.833Z,38.09
2023-05-23T12:32:40.674Z,39.24
2023-05-23T12:35:45.752Z,35.29
2023-05-23T12:38:47.640Z,38.93
2023-05-23T12:41:51.462Z,38.89
2023-05-23T12:44:54.157Z,39.99
2023-05-23T12:47:56.214Z,38.93
2023-05-23T12:50:58.201Z,36.87
2023-05-23T12:54:00.231Z,37.94
2023-05-23T12:57:03.719Z,39.09
2023-05-23T13:00:07.168Z,39.72
2023-05-23T13:03:09.706Z,38.53
2023-05-23T13:06:12.075Z,37.43
2023-05-23T13:09:13.936Z,40.39
2023-05-23T13:12:17.570Z,42.38
2023-05-23T13:15:19.546Z,38.08
2023-05-23T13:18:21.450Z,38.42
2023-05-23T13:21:24.077Z,37.97
2023-05-23T13:24:26.091Z,35.64
2023-05-23T13:27:29.603Z,38.97
2023-05-23T13:30:31.765Z,36.35
2023-05-23T13:33:33.735Z,38.44
2023-05-23T13:36:36.194Z,37.72
2023-05-23T13:39:38.063Z,38.99
2023-05-23T13:42:41.396Z,38.27
2023-05-23T13:45:43.274Z,39.16
2023-05-23T13:48:45.100Z,38.91
2023-05-23T13:51:48.286Z,37.41
2023-05-23T13:54:50.284Z,36.11
2023-05-23T13:57:54.382Z,33.95
2023-05-23T14:00:56.246Z,33.50
2023-05-23T14:03:58.930Z,37.59
2023-05-23T14:07:00.787Z,37.59
2023-05-23T14:10:03.081Z,42.11
2023-05-23T14:13:06.387Z,36.68
2023-05-23T14:16:09.049Z,36.88
2023-05-23T14:19:11.007Z,40.03
2023-05-23T14:22:13.920Z,34.05
2023-05-23T14:25:16.054Z,35.23
2023-05-23T14:28:19.394Z,35.91
2023-05-23T14:31:22.366Z,41.99
2023-05-23T14:34:24.197Z,37.34
2023-05-23T14:37:26.879Z,37.19
2023-05-23T14:40:28.731Z,37.94
2023-05-23T14:43:32.021Z,39.17
2023-05-23T14:46:34.835Z,37.70
2023-05-23T14:49:36.895Z,36.73
2023-05-23T14:52:38.811Z,38.24
2023-05-23T14:55:41.386Z,38.98
2023-05-23T14:58:46.004Z,37.69
2023-05-23T15:01:48.107Z,38.27
2023-05-23T15:04:50.788Z,38.81
2023-05-23T15:07:52.659Z,38.08
2023-05-23T15:10:54.555Z,39.65
2023-05-23T15:13:57.790Z,39.62
2023-05-23T15:17:07.766Z,39.90
2023-05-23T15:20:10.841Z,38.69
2023-05-23T15:23:12.773Z,38.69
2023-05-23T15:26:14.743Z,39.47
2023-05-23T15:29:18.392Z,41.10
2023-05-23T15:32:20.434Z,40.82
2023-05-23T15:35:22.926Z,47.78
2023-05-23T15:38:24.800Z,50.51
2023-05-23T15:41:26.732Z,41.74
2023-05-23T15:44:30.170Z,47.09
2023-05-23T15:47:32.807Z,42.65
2023-05-23T15:50:34.750Z,44.63
2023-05-23T15:53:47.904Z,40.59
2023-05-23T15:56:58.523Z,43.37
2023-05-23T16:00:02.220Z,43.74
2023-05-23T16:03:04.299Z,43.96
2023-05-23T16:06:06.748Z,47.45
2023-05-23T16:09:08.949Z,41.17
2023-05-23T16:12:10.856Z,45.68
2023-05-23T16:15:14.318Z,37.71
2023-05-23T16:18:16.238Z,40.52
2023-05-23T16:21:20.770Z,44.23
2023-05-23T16:24:24.422Z,45.06
2023-05-23T16:27:26.306Z,43.34
2023-05-23T16:30:29.563Z,46.86
2023-05-23T16:33:31.783Z,51.67
2023-05-23T16:36:33.711Z,40.72
2023-05-23T16:39:35.606Z,46.77
2023-05-23T16:42:37.495Z,50.39
2023-05-23T16:45:42.118Z,50.85
2023-05-23T16:48:44.620Z,54.22
2023-05-23T16:51:48.562Z,56.27
2023-05-23T16:54:50.809Z,55.63
2023-05-23T16:57:53.305Z,43.25
2023-05-23T17:00:57.017Z,50.51
2023-05-23T17:03:59.028Z,53.39
2023-05-23T17:07:01.711Z,48.34
2023-05-23T17:10:03.691Z,50.86
2023-05-23T17:13:06.469Z,54.03
2023-05-23T17:16:09.897Z,57.08
2023-05-23T17:19:11.797Z,59.08
2023-05-23T17:22:14.544Z,60.07
2023-05-23T17:25:16.469Z,61.10
2023-05-23T17:28:18.454Z,61.86
2023-05-23T17:31:21.787Z,63.11
2023-05-23T17:34:23.662Z,63.85
2023-05-23T17:37:26.557Z,64.64
2023-05-23T17:40:28.509Z,65.41
2023-05-23T17:43:30.628Z,65.38
2023-05-23T17:46:34.295Z,65.92
2023-05-23T17:49:37.926Z,66.41
2023-05-23T17:52:40.579Z,67.58
2023-05-23T17:55:42.416Z,67.89
2023-05-23T17:58:44.585Z,68.57
2023-05-23T18:01:48.028Z,69.02
2023-05-23T18:04:50.473Z,69.06
2023-05-23T18:07:52.716Z,69.40
2023-05-23T18:10:54.531Z,70.35
2023-05-23T18:13:56.505Z,70.87
2023-05-23T18:16:59.855Z,70.40
2023-05-23T18:20:02.261Z,70.59
2023-05-23T18:23:04.738Z,71.01
2023-05-23T18:26:06.653Z,71.97
2023-05-23T18:29:08.600Z,74.15
2023-05-23T18:32:14.547Z,75.08
2023-05-23T18:35:16.540Z,76.49
2023-05-23T18:38:19.309Z,79.64
2023-05-23T18:41:22.381Z,80.49
2023-05-23T18:44:24.193Z,81.83
2023-05-23T18:47:27.722Z,81.65
2023-05-23T18:50:29.860Z,82.71
2023-05-23T18:53:32.578Z,82.83
2023-05-23T18:56:34.571Z,82.89
2023-05-23T18:59:36.837Z,82.88
2023-05-23T19:02:44.285Z,81.63
2023-05-23T19:05:46.457Z,83.18
2023-05-23T19:08:49.224Z,85.04
2023-05-23T19:11:51.055Z,85.73
2023-05-23T19:14:52.980Z,84.56
2023-05-23T19:17:56.270Z,85.74
2023-05-23T19:20:58.248Z,85.08
2023-05-23T19:24:00.225Z,84.61
2023-05-23T19:27:02.452Z,85.59
2023-05-23T19:30:04.991Z,88.09
2023-05-23T19:33:08.701Z,87.92
2023-05-23T19:36:10.609Z,86.43
2023-05-23T19:39:13.074Z,86.87
2023-05-23T19:42:14.980Z,88.39
2023-05-23T19:45:17.466Z,86.86
2023-05-23T19:48:20.752Z,87.37
2023-05-23T19:51:23.213Z,86.99
2023-05-23T19:54:25.217Z,87.64
2023-05-23T19:57:27.050Z,88.38
2023-05-23T20:00:29.025Z,86.89
2023-05-23T20:03:32.265Z,81.17
2023-05-23T20:06:35.243Z,83.58
2023-05-23T20:09:37.656Z,84.13
2023-05-23T20:12:40.345Z,83.89
2023-05-23T20:15:42.612Z,81.49
2023-05-23T20:18:45.874Z,82.03
2023-05-23T20:21:47.764Z,82.95
2023-05-23T20:24:50.009Z,82.40
2023-05-23T20:27:51.905Z,82.09
2023-05-23T20:30:53.806Z,83.25
2023-05-23T20:33:57.106Z,83.83
2023-05-23T20:36:59.027Z,84.38
2023-05-23T20:40:00.852Z,84.89
2023-05-23T20:43:05.166Z,84.66
2023-05-23T20:46:09.344Z,84.59
2023-05-23T20:49:14.324Z,86.30
2023-05-23T20:52:16.401Z,86.02
2023-05-23T20:55:18.967Z,85.96
2023-05-23T20:58:21.733Z,85.44
2023-05-23T21:01:26.419Z,85.86
2023-05-23T21:04:29.736Z,85.46
2023-05-23T21:07:32.306Z,86.45
2023-05-23T21:10:34.378Z,87.05
2023-05-23T21:13:39.786Z,86.88
2023-05-23T21:16:41.984Z,86.63
2023-05-23T21:19:45.281Z,86.82
2023-05-23T21:22:48.193Z,88.15
2023-05-23T21:25:50.072Z,88.14
2023-05-23T21:28:51.930Z,87.69
2023-05-23T21:31:55.086Z,87.72
2023-05-23T21:34:58.602Z,88.11
2023-05-23T21:38:00.564Z,88.26
2023-05-23T21:41:02.363Z,87.68
2023-05-23T21:44:04.305Z,87.55
2023-05-23T21:47:06.334Z,87.87
2023-05-23T21:50:11.381Z,87.51
2023-05-23T21:53:13.313Z,88.55
2023-05-23T21:56:15.164Z,87.64
2023-05-23T21:59:17.860Z,87.22
2023-05-23T22:02:19.719Z,88.00
2023-05-23T22:05:23.249Z,88.21
2023-05-23T22:08:25.019Z,87.84
2023-05-23T22:11:33.960Z,88.13
2023-05-23T22:14:36.211Z,88.63
2023-05-23T22:17:38.232Z,88.51
2023-05-23T22:20:42.336Z,88.40
2023-05-23T22:23:44.365Z,88.64
2023-05-23T22:26:46.285Z,87.99
2023-05-23T22:29:48.821Z,88.81
2023-05-23T22:32:51.002Z,89.15
2023-05-23T22:35:54.349Z,88.75
2023-05-23T22:38:56.582Z,89.01
2023-05-23T22:41:58.768Z,88.80
2023-05-23T22:45:00.755Z,88.88
2023-05-23T22:48:02.732Z,89.15
2023-05-23T22:51:08.033Z,89.40
2023-05-23T22:54:10.043Z,89.25
2023-05-23T22:57:12.638Z,89.03
2023-05-23T23:00:15.028Z,89.83
2023-05-23T23:03:17.811Z,89.16
2023-05-23T23:06:21.137Z,89.23
2023-05-23T23:09:23.143Z,89.43
2023-05-23T23:12:25.614Z,88.86
2023-05-23T23:15:30.234Z,89.08
2023-05-23T23:18:32.684Z,89.28
2023-05-23T23:21:36.216Z,88.93
2023-05-23T23:24:38.160Z,89.08
2023-05-23T23:27:40.597Z,89.17
2023-05-23T23:30:43.916Z,89.33
2023-05-23T23:33:46.829Z,88.53
2023-05-23T23:36:50.137Z,87.71
2023-05-23T23:39:52.673Z,87.09
2023-05-23T23:42:54.592Z,85.28
2023-05-23T23:45:56.403Z,85.27
2023-05-23T23:48:58.560Z,85.13
2023-05-23T23:52:01.864Z,84.00
2023-05-23T23:55:05.295Z,82.61
2023-05-23T23:58:07.183Z,83.16
